createdAt,value
2018-01-10T05:00:56.014Z,0
2018-01-10T05:01:21.520Z,0
2018-01-10T05:01:46.986Z,0
2018-01-10T05:02:12.504Z,0
2018-01-10T05:02:37.990Z,0
2018-01-10T05:03:03.476Z,0
2018-01-10T05:04:32.802Z,0
2018-01-10T05:04:58.292Z,0
2018-01-10T05:05:23.798Z,0
2018-01-10T05:05:49.414Z,0
2018-01-10T05:06:14.853Z,0
2018-01-10T05:07:23.858Z,0
2018-01-10T05:07:49.244Z,0
2018-01-10T05:08:14.707Z,0
2018-01-10T05:08:40.172Z,0
2018-01-10T05:09:05.674Z,0
2018-01-10T05:10:19.448Z,0
2018-01-10T05:10:44.942Z,0
2018-01-10T05:11:10.490Z,0
2018-01-10T05:11:36.037Z,0
2018-01-10T05:12:01.527Z,0
2018-01-10T05:12:27.009Z,0
2018-01-10T05:12:52.527Z,0
2018-01-10T05:13:18.004Z,0
2018-01-10T05:13:43.450Z,0
2018-01-10T05:14:08.929Z,0
2018-01-10T05:14:34.399Z,0
2018-01-10T05:14:59.863Z,0
2018-01-10T05:15:25.337Z,0
2018-01-10T05:15:50.815Z,0
2018-01-10T05:16:16.330Z,0
2018-01-10T05:17:45.402Z,0
2018-01-10T05:18:10.886Z,0
2018-01-10T05:18:36.406Z,0
2018-01-10T05:19:01.910Z,0
2018-01-10T05:19:27.407Z,0
2018-01-10T05:19:52.897Z,0
2018-01-10T05:20:18.373Z,0
2018-01-10T05:21:37.269Z,0
2018-01-10T05:22:02.753Z,0
2018-01-10T05:23:31.840Z,0
2018-01-10T05:23:57.326Z,0
2018-01-10T05:24:22.838Z,0
2018-01-10T05:24:48.315Z,0
2018-01-10T05:25:13.812Z,0
2018-01-10T05:25:39.256Z,0
2018-01-10T05:26:04.702Z,0
2018-01-10T05:26:30.193Z,0
2018-01-10T05:26:55.746Z,0
2018-01-10T05:27:21.192Z,0
2018-01-10T05:27:46.645Z,0
2018-01-10T05:28:12.177Z,0
2018-01-10T05:28:37.679Z,0
2018-01-10T05:29:03.220Z,0
2018-01-10T05:29:28.725Z,0
2018-01-10T05:29:54.274Z,0
2018-01-10T05:30:19.632Z,0
2018-01-10T05:31:33.436Z,0
2018-01-10T05:31:58.913Z,0
2018-01-10T05:32:24.392Z,0
2018-01-10T05:32:49.857Z,0
2018-01-10T05:33:15.309Z,0
2018-01-10T05:33:40.795Z,0
2018-01-10T05:34:06.273Z,0
2018-01-10T05:34:31.759Z,0
2018-01-10T05:35:50.681Z,0
2018-01-10T05:36:16.150Z,0
2018-01-10T05:36:41.637Z,0
2018-01-10T05:37:07.130Z,0
2018-01-10T05:37:32.600Z,0
2018-01-10T05:37:58.139Z,0
2018-01-10T05:39:22.090Z,0
2018-01-10T05:39:47.594Z,0
2018-01-10T05:40:13.032Z,0
2018-01-10T05:40:38.600Z,0
2018-01-10T05:41:04.053Z,0
2018-01-10T05:41:29.596Z,0
2018-01-10T05:42:58.698Z,0
2018-01-10T05:43:24.158Z,0
2018-01-10T05:43:49.606Z,0
2018-01-10T05:44:15.148Z,0
2018-01-10T05:44:40.566Z,0
2018-01-10T05:45:06.028Z,0
2018-01-10T05:45:31.521Z,0
2018-01-10T05:45:57.000Z,0
2018-01-10T05:46:22.481Z,0
2018-01-10T05:47:46.564Z,0
2018-01-10T05:48:12.002Z,0
2018-01-10T05:48:37.521Z,0
2018-01-10T05:49:02.950Z,0
2018-01-10T05:49:28.432Z,0
2018-01-10T05:49:53.879Z,0
2018-01-10T05:50:19.329Z,0
2018-01-10T05:50:44.832Z,0
2018-01-10T05:51:10.319Z,0
2018-01-10T05:51:35.759Z,0
2018-01-10T05:52:59.795Z,0
2018-01-10T05:53:25.267Z,0
2018-01-10T05:53:50.798Z,0
2018-01-10T05:54:16.280Z,0
2018-01-10T05:54:41.744Z,0
2018-01-10T05:55:07.213Z,0
2018-01-10T05:56:20.988Z,0
2018-01-10T05:56:46.449Z,0
2018-01-10T05:57:11.938Z,0
2018-01-10T05:57:37.423Z,0
2018-01-10T05:58:02.887Z,0
2018-01-10T05:58:28.373Z,0
2018-01-10T05:58:53.867Z,0
2018-01-10T05:59:19.353Z,0
2018-01-10T05:59:44.820Z,0
2018-01-10T06:00:10.308Z,0
2018-01-10T06:00:35.777Z,0
2018-01-10T06:01:44.466Z,0
2018-01-10T06:02:09.956Z,0
2018-01-10T06:02:35.401Z,0
2018-01-10T06:03:00.887Z,0
2018-01-10T06:03:26.363Z,0
2018-01-10T06:03:51.856Z,0
2018-01-10T06:04:17.270Z,0
2018-01-10T06:04:42.762Z,0
2018-01-10T06:05:08.221Z,0
2018-01-10T06:05:33.778Z,0
2018-01-10T06:05:59.167Z,0
2018-01-10T06:07:12.967Z,0
2018-01-10T06:07:38.448Z,0
2018-01-10T06:08:03.903Z,0
2018-01-10T06:08:29.383Z,0
2018-01-10T06:08:54.936Z,0
2018-01-10T06:09:20.364Z,0
2018-01-10T06:09:45.851Z,0
2018-01-10T06:10:11.362Z,0
2018-01-10T06:10:36.851Z,0
2018-01-10T06:11:02.273Z,0
2018-01-10T06:11:27.745Z,0
2018-01-10T06:11:53.255Z,0
2018-01-10T06:12:18.717Z,0
2018-01-10T06:12:44.174Z,0
2018-01-10T06:13:09.642Z,0
2018-01-10T06:13:35.146Z,0
2018-01-10T06:14:00.586Z,0
2018-01-10T06:14:26.089Z,0
2018-01-10T06:14:51.561Z,0
2018-01-10T06:15:17.026Z,0
2018-01-10T06:15:42.466Z,0
2018-01-10T06:16:07.954Z,0
2018-01-10T06:16:33.402Z,0
2018-01-10T06:16:58.905Z,0
2018-01-10T06:17:24.358Z,0
2018-01-10T06:17:49.862Z,0
2018-01-10T06:18:15.333Z,0
2018-01-10T06:18:40.857Z,0
2018-01-10T06:19:06.288Z,0
2018-01-10T06:19:31.777Z,0
2018-01-10T06:21:01.898Z,0
2018-01-10T06:21:27.370Z,0
2018-01-10T06:22:56.598Z,0
2018-01-10T06:24:25.655Z,0
2018-01-10T06:24:51.152Z,0
2018-01-10T06:25:16.619Z,0
2018-01-10T06:25:42.127Z,0
2018-01-10T06:26:07.616Z,0
2018-01-10T06:26:33.087Z,0
2018-01-10T06:26:58.566Z,0
2018-01-10T06:27:24.024Z,0
2018-01-10T06:28:42.961Z,0
2018-01-10T06:29:08.429Z,0
2018-01-10T06:29:33.966Z,0
2018-01-10T06:29:59.420Z,0
2018-01-10T06:30:24.840Z,0
2018-01-10T06:30:50.329Z,0
2018-01-10T06:31:15.836Z,0
2018-01-10T06:31:41.299Z,0
2018-01-10T06:32:06.776Z,0
2018-01-10T06:32:32.383Z,0
2018-01-10T06:32:57.848Z,0
2018-01-10T06:33:23.361Z,0
2018-01-10T06:33:48.927Z,0
2018-01-10T06:34:14.425Z,0
2018-01-10T06:34:39.893Z,0
2018-01-10T06:35:05.377Z,0
2018-01-10T06:35:30.883Z,0
2018-01-10T06:35:56.370Z,0
2018-01-10T06:36:21.859Z,0
2018-01-10T06:36:47.356Z,0
2018-01-10T06:37:12.763Z,0
2018-01-10T06:37:38.253Z,0
2018-01-10T06:38:03.762Z,0
2018-01-10T06:38:29.281Z,0
2018-01-10T06:38:54.775Z,0
2018-01-10T06:39:20.270Z,0
2018-01-10T06:39:45.766Z,0
2018-01-10T06:40:11.270Z,0
2018-01-10T06:40:36.810Z,0
2018-01-10T06:41:02.251Z,0
2018-01-10T06:41:27.739Z,0
2018-01-10T06:41:53.188Z,0
2018-01-10T06:42:18.648Z,0
2018-01-10T06:42:44.134Z,0
2018-01-10T06:43:09.624Z,0
2018-01-10T06:43:35.093Z,0
2018-01-10T06:44:00.602Z,0
2018-01-10T06:44:26.090Z,0
2018-01-10T06:44:51.599Z,0
2018-01-10T06:45:17.168Z,0
2018-01-10T06:45:42.610Z,0
2018-01-10T06:46:08.124Z,0
2018-01-10T06:46:33.703Z,0
2018-01-10T06:46:59.194Z,0
2018-01-10T06:48:19.092Z,0
2018-01-10T06:48:44.577Z,0
2018-01-10T06:49:10.099Z,0
2018-01-10T06:49:35.617Z,0
2018-01-10T06:50:01.020Z,0
2018-01-10T06:50:26.493Z,0
2018-01-10T06:50:52.006Z,0
2018-01-10T06:51:17.470Z,0
2018-01-10T06:51:42.988Z,0
2018-01-10T06:52:08.484Z,0
2018-01-10T06:52:33.953Z,0
2018-01-10T06:52:59.499Z,0
2018-01-10T06:53:25.011Z,0
2018-01-10T06:53:50.496Z,0
2018-01-10T06:54:16.003Z,0
2018-01-10T06:54:41.484Z,0
2018-01-10T06:55:06.972Z,0
2018-01-10T06:55:32.425Z,0
2018-01-10T06:55:57.938Z,0
2018-01-10T06:56:23.476Z,0
2018-01-10T06:57:47.485Z,0
2018-01-10T06:58:12.974Z,0
2018-01-10T06:58:38.439Z,0
2018-01-10T06:59:03.951Z,0
2018-01-10T06:59:29.394Z,0
2018-01-10T06:59:54.868Z,0
2018-01-10T07:01:03.556Z,0
2018-01-10T07:01:29.047Z,0
2018-01-10T07:01:54.526Z,0
2018-01-10T07:02:20.087Z,0
2018-01-10T07:02:45.544Z,0
2018-01-10T07:03:11.043Z,0
2018-01-10T07:03:36.473Z,0
2018-01-10T07:04:01.981Z,0
2018-01-10T07:04:27.450Z,0
2018-01-10T07:04:52.878Z,0
2018-01-10T07:05:18.398Z,0
2018-01-10T07:06:32.242Z,0
2018-01-10T07:06:57.673Z,0
2018-01-10T07:07:23.142Z,0
2018-01-10T07:07:48.604Z,0
2018-01-10T07:08:14.053Z,0
2018-01-10T07:08:39.521Z,0
2018-01-10T07:09:04.968Z,0
2018-01-10T07:09:30.446Z,0
2018-01-10T07:09:55.941Z,0
2018-01-10T07:10:21.387Z,0
2018-01-10T07:10:46.841Z,0
2018-01-10T07:11:12.301Z,0
2018-01-10T07:11:37.766Z,0
2018-01-10T07:12:03.245Z,0
2018-01-10T07:12:28.684Z,0
2018-01-10T07:12:54.151Z,0
2018-01-10T07:13:19.601Z,0
2018-01-10T07:13:45.074Z,0
2018-01-10T07:14:10.557Z,0
2018-01-10T07:14:36.057Z,0
2018-01-10T07:15:01.509Z,0
2018-01-10T07:15:27.031Z,0
2018-01-10T07:15:52.513Z,0
2018-01-10T07:16:17.950Z,0
2018-01-10T07:16:43.418Z,0
2018-01-10T07:17:08.873Z,0
2018-01-10T07:17:34.366Z,0
2018-01-10T07:17:59.805Z,0
2018-01-10T07:18:25.285Z,0
2018-01-10T07:18:50.788Z,0
2018-01-10T07:19:16.264Z,0
2018-01-10T07:19:41.705Z,0
2018-01-10T07:20:07.139Z,0
2018-01-10T07:20:32.611Z,0
2018-01-10T07:20:58.066Z,0
2018-01-10T07:21:23.540Z,0
2018-01-10T07:21:49.001Z,0
2018-01-10T07:22:14.498Z,0
2018-01-10T07:22:39.971Z,0
2018-01-10T07:24:04.022Z,0
2018-01-10T07:24:29.521Z,0
2018-01-10T07:24:54.999Z,0
2018-01-10T07:25:20.478Z,0
2018-01-10T07:25:45.892Z,0
2018-01-10T07:26:11.352Z,0
2018-01-10T07:26:36.843Z,0
2018-01-10T07:27:02.278Z,0
2018-01-10T07:27:27.834Z,0
2018-01-10T07:27:53.231Z,0
2018-01-10T07:28:18.698Z,0
2018-01-10T07:28:44.173Z,0
2018-01-10T07:29:09.691Z,0
2018-01-10T07:30:28.639Z,0
2018-01-10T07:30:54.097Z,0
2018-01-10T07:31:19.541Z,0
2018-01-10T07:31:45.042Z,0
2018-01-10T07:32:10.508Z,0
2018-01-10T07:32:35.954Z,0
2018-01-10T07:33:01.430Z,0
2018-01-10T07:33:26.886Z,5
2018-01-10T07:33:52.361Z,5
2018-01-10T07:34:17.820Z,5
2018-01-10T07:34:43.316Z,5
2018-01-10T07:35:08.764Z,5
2018-01-10T07:35:34.254Z,5
2018-01-10T07:35:59.740Z,5
2018-01-10T07:37:13.525Z,5
2018-01-10T07:37:39.051Z,5
2018-01-10T07:38:04.537Z,5
2018-01-10T07:38:30.039Z,5
2018-01-10T07:38:55.472Z,5
2018-01-10T07:39:21.002Z,5
2018-01-10T07:39:46.511Z,5
2018-01-10T07:40:11.944Z,5
2018-01-10T07:40:37.431Z,5
2018-01-10T07:41:02.891Z,5
2018-01-10T07:41:28.304Z,5
2018-01-10T07:41:53.780Z,5
2018-01-10T07:42:19.321Z,5
2018-01-10T07:42:44.813Z,5
2018-01-10T07:43:10.255Z,5
2018-01-10T07:43:35.726Z,5
2018-01-10T07:44:01.219Z,5
2018-01-10T07:44:26.724Z,5
2018-01-10T07:44:52.216Z,5
2018-01-10T07:45:17.670Z,5
2018-01-10T07:45:43.152Z,5
2018-01-10T07:46:08.624Z,10
2018-01-10T07:46:34.101Z,10
2018-01-10T07:46:59.561Z,10
2018-01-10T07:47:25.071Z,10
2018-01-10T07:47:50.501Z,10
2018-01-10T07:48:15.952Z,10
2018-01-10T07:48:41.379Z,10
2018-01-10T07:49:06.820Z,10
2018-01-10T07:49:32.313Z,10
2018-01-10T07:49:57.790Z,10
2018-01-10T07:50:23.285Z,10
2018-01-10T07:50:48.748Z,10
2018-01-10T07:51:14.212Z,10
2018-01-10T07:51:39.663Z,10
2018-01-10T07:52:05.149Z,15
2018-01-10T07:52:30.628Z,15
2018-01-10T07:52:56.089Z,15
2018-01-10T07:53:21.546Z,15
2018-01-10T07:54:35.342Z,15
2018-01-10T07:55:00.857Z,15
2018-01-10T07:55:26.341Z,15
2018-01-10T07:56:55.337Z,15
2018-01-10T07:57:20.828Z,15
2018-01-10T07:57:46.289Z,15
2018-01-10T07:58:11.728Z,15
2018-01-10T07:58:37.196Z,20
2018-01-10T07:59:02.708Z,20
2018-01-10T07:59:28.150Z,20
2018-01-10T07:59:53.648Z,20
2018-01-10T08:00:19.221Z,20
2018-01-10T08:00:44.881Z,20
2018-01-10T08:01:10.344Z,20
2018-01-10T08:01:35.819Z,20
2018-01-10T08:02:01.367Z,20
2018-01-10T08:02:26.774Z,25
2018-01-10T08:02:52.207Z,25
2018-01-10T08:03:17.661Z,25
2018-01-10T08:03:43.149Z,25
2018-01-10T08:04:08.624Z,25
2018-01-10T08:04:34.075Z,25
2018-01-10T08:04:59.520Z,25
2018-01-10T08:05:25.013Z,25
2018-01-10T08:05:50.486Z,25
2018-01-10T08:06:15.945Z,25
2018-01-10T08:06:41.604Z,25
2018-01-10T08:07:07.070Z,25
2018-01-10T08:07:32.593Z,25
2018-01-10T08:07:58.066Z,25
2018-01-10T08:09:27.172Z,25
2018-01-10T08:09:52.669Z,25
2018-01-10T08:10:18.105Z,30
2018-01-10T08:10:43.560Z,30
2018-01-10T08:11:09.060Z,30
2018-01-10T08:11:34.497Z,30
2018-01-10T08:11:59.954Z,30
2018-01-10T08:12:25.453Z,30
2018-01-10T08:12:50.929Z,30
2018-01-10T08:13:16.367Z,30
2018-01-10T08:13:41.823Z,30
2018-01-10T08:14:07.339Z,30
2018-01-10T08:14:32.822Z,30
2018-01-10T08:14:58.315Z,30
2018-01-10T08:15:23.733Z,30
2018-01-10T08:15:49.218Z,30
2018-01-10T08:16:14.658Z,30
2018-01-10T08:16:40.146Z,30
2018-01-10T08:17:05.573Z,30
2018-01-10T08:17:31.073Z,30
2018-01-10T08:17:56.510Z,30
2018-01-10T08:18:22.079Z,30
2018-01-10T08:18:47.614Z,30
2018-01-10T08:19:13.154Z,30
2018-01-10T08:19:38.612Z,30
2018-01-10T08:20:04.065Z,30
2018-01-10T08:20:29.596Z,30
2018-01-10T08:20:55.015Z,30
2018-01-10T08:21:20.502Z,30
2018-01-10T08:21:45.973Z,35
2018-01-10T08:22:11.449Z,35
2018-01-10T08:22:36.897Z,35
2018-01-10T08:23:02.331Z,30
2018-01-10T08:23:27.799Z,30
2018-01-10T08:23:53.280Z,30
2018-01-10T08:24:18.787Z,30
2018-01-10T08:25:42.832Z,30
2018-01-10T08:26:08.532Z,30
2018-01-10T08:26:34.417Z,30
2018-01-10T08:26:59.886Z,30
2018-01-10T08:27:25.391Z,30
2018-01-10T08:27:50.879Z,30
2018-01-10T08:28:16.420Z,30
2018-01-10T08:28:41.966Z,30
2018-01-10T08:30:05.927Z,35
2018-01-10T08:30:31.412Z,40
2018-01-10T08:30:56.949Z,40
2018-01-10T08:31:22.411Z,40
2018-01-10T08:31:47.863Z,40
2018-01-10T08:33:11.831Z,50
2018-01-10T08:33:37.309Z,50
2018-01-10T08:34:02.785Z,55
2018-01-10T08:34:28.263Z,55
2018-01-10T08:34:53.733Z,55
2018-01-10T08:36:22.866Z,55
2018-01-10T08:36:48.310Z,55
2018-01-10T08:37:13.776Z,55
2018-01-10T08:37:39.249Z,55
2018-01-10T08:38:04.725Z,55
2018-01-10T08:38:30.172Z,55
2018-01-10T08:38:55.689Z,55
2018-01-10T08:39:21.143Z,60
2018-01-10T08:39:46.646Z,60
2018-01-10T08:40:12.081Z,60
2018-01-10T08:40:37.552Z,60
2018-01-10T08:41:03.018Z,60
2018-01-10T08:41:28.466Z,65
2018-01-10T08:41:53.903Z,65
2018-01-10T08:43:02.605Z,65
2018-01-10T08:43:28.082Z,65
2018-01-10T08:43:53.514Z,70
2018-01-10T08:44:18.995Z,75
2018-01-10T08:44:44.485Z,75
2018-01-10T08:45:09.921Z,80
2018-01-10T08:45:35.526Z,80
2018-01-10T08:46:00.945Z,85
2018-01-10T08:46:26.467Z,90
2018-01-10T08:46:51.917Z,90
2018-01-10T08:47:17.430Z,95
2018-01-10T08:47:42.914Z,95
2018-01-10T08:48:08.405Z,95
2018-01-10T08:48:33.882Z,95
2018-01-10T08:48:59.305Z,95
2018-01-10T08:49:24.799Z,95
2018-01-10T08:49:50.271Z,95
2018-01-10T08:50:15.754Z,95
2018-01-10T08:50:41.209Z,95
2018-01-10T08:51:06.731Z,95
2018-01-10T08:51:32.218Z,95
2018-01-10T08:51:57.673Z,95
2018-01-10T08:52:23.133Z,95
2018-01-10T08:52:48.726Z,95
2018-01-10T08:53:14.178Z,95
2018-01-10T08:53:39.649Z,90
2018-01-10T08:54:05.130Z,90
2018-01-10T08:54:30.610Z,85
2018-01-10T08:54:56.101Z,85
2018-01-10T08:55:21.581Z,85
2018-01-10T08:55:47.059Z,85
2018-01-10T08:56:12.674Z,90
2018-01-10T08:56:38.136Z,90
2018-01-10T08:57:03.611Z,90
2018-01-10T08:57:29.118Z,95
2018-01-10T08:57:54.562Z,95
2018-01-10T08:58:20.034Z,95
2018-01-10T08:58:45.520Z,95
2018-01-10T08:59:11.029Z,100
2018-01-10T08:59:36.530Z,100
2018-01-10T09:00:01.994Z,100
2018-01-10T09:00:27.480Z,95
2018-01-10T09:00:52.917Z,95
2018-01-10T09:01:18.393Z,95
2018-01-10T09:01:43.845Z,90
2018-01-10T09:02:09.309Z,90
2018-01-10T09:02:34.810Z,90
2018-01-10T09:03:00.277Z,90
2018-01-10T09:03:25.719Z,90
2018-01-10T09:03:51.200Z,90
2018-01-10T09:04:16.698Z,90
2018-01-10T09:04:42.147Z,95
2018-01-10T09:05:07.625Z,95
2018-01-10T09:05:33.116Z,95
2018-01-10T09:05:58.591Z,95
2018-01-10T09:06:24.078Z,95
2018-01-10T09:06:49.541Z,95
2018-01-10T09:08:18.618Z,100
2018-01-10T09:08:44.122Z,100
2018-01-10T09:09:09.554Z,100
2018-01-10T09:09:35.020Z,105
2018-01-10T09:10:59.072Z,105
2018-01-10T09:11:24.565Z,105
2018-01-10T09:11:50.103Z,105
2018-01-10T09:12:15.503Z,105
2018-01-10T09:12:40.993Z,110
2018-01-10T09:13:06.467Z,110
2018-01-10T09:13:31.962Z,110
2018-01-10T09:13:57.470Z,110
2018-01-10T09:14:22.911Z,110
2018-01-10T09:14:48.404Z,115
2018-01-10T09:15:13.888Z,115
2018-01-10T09:15:39.355Z,115
2018-01-10T09:16:04.787Z,115
2018-01-10T09:16:30.301Z,115
2018-01-10T09:16:55.761Z,115
2018-01-10T09:17:21.235Z,115
2018-01-10T09:17:46.797Z,115
2018-01-10T09:18:12.213Z,115
2018-01-10T09:18:37.707Z,115
2018-01-10T09:19:03.243Z,115
2018-01-10T09:19:28.714Z,115
2018-01-10T09:20:42.570Z,115
2018-01-10T09:21:08.039Z,115
2018-01-10T09:21:33.540Z,115
2018-01-10T09:21:59.022Z,115
2018-01-10T09:22:24.483Z,110
2018-01-10T09:22:49.985Z,115
2018-01-10T09:23:15.533Z,115
2018-01-10T09:23:40.974Z,115
2018-01-10T09:24:06.432Z,115
2018-01-10T09:24:31.880Z,115
2018-01-10T09:24:57.374Z,115
2018-01-10T09:25:22.838Z,110
2018-01-10T09:25:48.295Z,105
2018-01-10T09:26:13.777Z,105
2018-01-10T09:26:39.320Z,105
2018-01-10T09:27:04.793Z,100
2018-01-10T09:28:33.935Z,95
2018-01-10T09:28:59.433Z,90
2018-01-10T09:29:24.957Z,85
2018-01-10T09:29:50.373Z,80
2018-01-10T09:30:15.829Z,75
2018-01-10T09:30:41.380Z,75
2018-01-10T09:31:06.875Z,75
2018-01-10T09:31:32.363Z,75
2018-01-10T09:31:57.836Z,70
2018-01-10T09:32:23.342Z,70
2018-01-10T09:32:48.772Z,75
2018-01-10T09:33:14.235Z,75
2018-01-10T09:33:39.968Z,75
2018-01-10T09:34:05.824Z,80
2018-01-10T09:34:31.695Z,80
2018-01-10T09:34:57.331Z,80
2018-01-10T09:35:22.811Z,80
2018-01-10T09:35:48.336Z,80
2018-01-10T09:36:13.817Z,80
2018-01-10T09:36:39.331Z,80
2018-01-10T09:37:04.890Z,75
2018-01-10T09:38:29.144Z,70
2018-01-10T09:38:54.604Z,65
2018-01-10T09:39:20.116Z,65
2018-01-10T09:39:45.586Z,65
2018-01-10T09:40:11.073Z,60
2018-01-10T09:40:36.627Z,60
2018-01-10T09:41:02.153Z,60
2018-01-10T09:41:27.632Z,55
2018-01-10T09:41:53.091Z,55
2018-01-10T09:42:18.579Z,55
2018-01-10T09:42:44.046Z,50
2018-01-10T09:43:09.528Z,50
2018-01-10T09:43:34.986Z,50
2018-01-10T09:44:00.472Z,50
2018-01-10T09:44:25.923Z,50
2018-01-10T09:44:51.352Z,45
2018-01-10T09:45:17.129Z,45
2018-01-10T09:45:42.586Z,45
2018-01-10T09:46:08.034Z,45
2018-01-10T09:46:33.549Z,45
2018-01-10T09:46:59.023Z,45
2018-01-10T09:47:24.551Z,45
2018-01-10T09:47:50.042Z,45
2018-01-10T09:49:08.953Z,45
2018-01-10T09:49:34.442Z,45
2018-01-10T09:49:59.902Z,45
2018-01-10T09:50:25.392Z,45
2018-01-10T09:50:50.893Z,40
2018-01-10T09:51:16.473Z,40
2018-01-10T09:51:42.264Z,40
2018-01-10T09:52:07.969Z,40
2018-01-10T09:52:33.449Z,35
2018-01-10T09:52:59.103Z,35
2018-01-10T09:53:24.707Z,35
2018-01-10T09:53:50.189Z,35
2018-01-10T09:54:15.677Z,35
2018-01-10T09:55:24.360Z,40
2018-01-10T09:55:49.837Z,40
2018-01-10T09:56:15.312Z,40
2018-01-10T09:56:40.789Z,45
2018-01-10T09:57:06.249Z,45
2018-01-10T09:57:31.729Z,45
2018-01-10T09:57:57.194Z,45
2018-01-10T09:58:22.629Z,50
2018-01-10T09:59:31.347Z,55
2018-01-10T09:59:56.785Z,55
2018-01-10T10:00:22.316Z,60
2018-01-10T10:00:47.792Z,60
2018-01-10T10:01:13.239Z,60
2018-01-10T10:01:38.709Z,65
2018-01-10T10:02:04.625Z,65
2018-01-10T10:02:30.083Z,70
2018-01-10T10:02:55.610Z,70
2018-01-10T10:03:21.076Z,75
2018-01-10T10:03:46.669Z,80
2018-01-10T10:04:12.252Z,80
2018-01-10T10:04:37.843Z,80
2018-01-10T10:05:03.217Z,80
2018-01-10T10:05:28.734Z,80
2018-01-10T10:05:54.372Z,80
2018-01-10T10:06:19.707Z,80
2018-01-10T10:06:45.178Z,80
2018-01-10T10:07:10.735Z,80
2018-01-10T10:07:36.135Z,80
2018-01-10T10:08:01.706Z,75
2018-01-10T10:08:27.359Z,75
2018-01-10T10:08:52.750Z,75
2018-01-10T10:09:18.303Z,75
2018-01-10T10:09:43.893Z,80
2018-01-10T10:10:09.421Z,80
2018-01-10T10:10:34.844Z,85
2018-01-10T10:11:00.404Z,85
2018-01-10T10:11:25.908Z,90
2018-01-10T10:11:51.661Z,90
2018-01-10T10:12:17.195Z,95
2018-01-10T10:12:42.709Z,100
2018-01-10T10:13:08.255Z,100
2018-01-10T10:13:33.626Z,105
2018-01-10T10:13:59.006Z,105
2018-01-10T10:14:24.576Z,100
2018-01-10T10:14:50.060Z,100
2018-01-10T10:15:15.607Z,100
2018-01-10T10:15:41.014Z,95
2018-01-10T10:16:06.510Z,90
2018-01-10T10:16:32.016Z,90
2018-01-10T10:16:57.468Z,85
2018-01-10T10:17:23.126Z,85
2018-01-10T10:17:48.622Z,85
2018-01-10T10:18:14.056Z,85
2018-01-10T10:18:39.569Z,90
2018-01-10T10:19:04.955Z,95
2018-01-10T10:19:30.464Z,95
2018-01-10T10:19:55.884Z,100
2018-01-10T10:20:21.444Z,100
2018-01-10T10:20:47.041Z,100
2018-01-10T10:21:12.522Z,100
2018-01-10T10:21:38.164Z,100
2018-01-10T10:22:03.636Z,100
2018-01-10T10:22:29.276Z,100
2018-01-10T10:22:54.728Z,100
2018-01-10T10:23:20.116Z,100
2018-01-10T10:23:45.794Z,100
2018-01-10T10:24:11.260Z,105
2018-01-10T10:24:36.747Z,105
2018-01-10T10:25:02.160Z,105
2018-01-10T10:25:27.654Z,110
2018-01-10T10:25:53.258Z,110
2018-01-10T10:26:18.707Z,110
2018-01-10T10:26:44.489Z,115
2018-01-10T10:27:10.165Z,115
2018-01-10T10:27:35.812Z,115
2018-01-10T10:28:01.385Z,115
2018-01-10T10:28:27.334Z,115
2018-01-10T10:28:52.858Z,115
2018-01-10T10:29:18.288Z,115
2018-01-10T10:29:43.898Z,115
2018-01-10T10:30:09.397Z,120
2018-01-10T10:30:34.901Z,120
2018-01-10T10:31:00.534Z,120
2018-01-10T10:31:26.282Z,120
2018-01-10T10:31:51.682Z,120
2018-01-10T10:32:17.374Z,120
2018-01-10T10:32:42.819Z,120
2018-01-10T10:33:08.517Z,120
2018-01-10T10:33:34.080Z,120
2018-01-10T10:33:59.650Z,120
2018-01-10T10:34:25.183Z,120
2018-01-10T10:34:51.010Z,120
2018-01-10T10:35:16.472Z,115
2018-01-10T10:35:41.992Z,115
2018-01-10T10:36:07.551Z,115
2018-01-10T10:36:33.074Z,115
2018-01-10T10:36:58.532Z,115
2018-01-10T10:37:24.059Z,115
2018-01-10T10:37:49.506Z,115
2018-01-10T10:38:15.093Z,115
2018-01-10T10:38:40.625Z,115
2018-01-10T10:39:06.252Z,115
2018-01-10T10:39:32.199Z,115
2018-01-10T10:39:57.569Z,120
2018-01-10T10:40:23.105Z,120
2018-01-10T10:40:48.728Z,125
2018-01-10T10:41:14.193Z,125
2018-01-10T10:41:39.644Z,125
2018-01-10T10:42:05.108Z,125
2018-01-10T10:42:30.747Z,125
2018-01-10T10:42:56.132Z,125
2018-01-10T10:43:21.710Z,120
2018-01-10T10:43:47.049Z,120
2018-01-10T10:44:12.652Z,120
2018-01-10T10:44:38.164Z,120
2018-01-10T10:45:03.866Z,120
2018-01-10T10:45:29.395Z,120
2018-01-10T10:45:54.928Z,115
2018-01-10T10:46:20.394Z,105
2018-01-10T10:46:45.995Z,100
2018-01-10T10:47:11.403Z,95
2018-01-10T10:47:36.970Z,95
2018-01-10T10:48:02.491Z,95
2018-01-10T10:48:28.349Z,100
2018-01-10T10:48:54.038Z,100
2018-01-10T10:49:19.493Z,100
2018-01-10T10:49:45.089Z,105
2018-01-10T10:50:10.518Z,105
2018-01-10T10:50:36.084Z,105
2018-01-10T10:51:01.666Z,105
2018-01-10T10:51:27.166Z,105
2018-01-10T10:51:52.620Z,105
2018-01-10T10:52:18.072Z,105
2018-01-10T10:52:43.721Z,100
2018-01-10T10:53:09.066Z,100
2018-01-10T10:53:34.657Z,100
2018-01-10T10:54:00.125Z,100
2018-01-10T10:54:26.244Z,100
2018-01-10T10:54:51.842Z,95
2018-01-10T10:55:17.238Z,95
2018-01-10T10:55:42.761Z,95
2018-01-10T10:56:08.322Z,90
2018-01-10T10:56:34.202Z,90
2018-01-10T10:56:59.747Z,90
2018-01-10T10:57:25.369Z,90
2018-01-10T10:57:50.845Z,90
2018-01-10T10:58:16.333Z,90
2018-01-10T10:58:41.830Z,90
2018-01-10T10:59:07.337Z,90
2018-01-10T10:59:33.031Z,85
2018-01-10T10:59:58.436Z,85
2018-01-10T11:00:23.875Z,80
2018-01-10T11:00:49.400Z,80
2018-01-10T11:01:14.991Z,80
2018-01-10T11:01:40.546Z,75
2018-01-10T11:02:06.092Z,75
2018-01-10T11:02:31.924Z,70
2018-01-10T11:02:57.501Z,70
2018-01-10T11:03:22.974Z,70
2018-01-10T11:03:48.595Z,65
2018-01-10T11:04:14.059Z,65
2018-01-10T11:04:39.582Z,65
2018-01-10T11:05:05.140Z,70
2018-01-10T11:05:30.570Z,70
2018-01-10T11:06:44.340Z,75
2018-01-10T11:07:09.813Z,80
2018-01-10T11:07:35.298Z,80
2018-01-10T11:08:00.783Z,80
2018-01-10T11:08:26.241Z,80
2018-01-10T11:08:51.688Z,80
2018-01-10T11:09:17.136Z,80
2018-01-10T11:09:42.658Z,80
2018-01-10T11:10:08.122Z,80
2018-01-10T11:10:33.555Z,80
2018-01-10T11:10:59.036Z,80
2018-01-10T11:12:28.114Z,80
2018-01-10T11:12:53.597Z,80
2018-01-10T11:13:19.087Z,75
2018-01-10T11:13:44.556Z,75
2018-01-10T11:14:10.064Z,75
2018-01-10T11:14:35.619Z,75
2018-01-10T11:15:01.083Z,75
2018-01-10T11:15:26.522Z,75
2018-01-10T11:15:52.064Z,75
2018-01-10T11:16:17.586Z,75
2018-01-10T11:16:43.087Z,80
2018-01-10T11:17:08.554Z,85
2018-01-10T11:17:34.035Z,85
2018-01-10T11:17:59.562Z,90
2018-01-10T11:18:24.992Z,90
2018-01-10T11:18:50.482Z,95
2018-01-10T11:19:15.961Z,95
2018-01-10T11:19:41.418Z,100
2018-01-10T11:20:06.963Z,100
2018-01-10T11:20:32.472Z,100
2018-01-10T11:20:57.946Z,105
2018-01-10T11:21:23.449Z,110
2018-01-10T11:21:48.940Z,110
2018-01-10T11:22:14.427Z,110
2018-01-10T11:22:39.890Z,105
2018-01-10T11:23:05.339Z,105
2018-01-10T11:23:30.808Z,105
2018-01-10T11:23:56.269Z,105
2018-01-10T11:24:21.737Z,105
2018-01-10T11:24:47.227Z,105
2018-01-10T11:25:12.706Z,105
2018-01-10T11:25:38.228Z,100
2018-01-10T11:26:03.721Z,100
2018-01-10T11:26:29.162Z,100
2018-01-10T11:26:54.676Z,100
2018-01-10T11:28:08.476Z,100
2018-01-10T11:28:33.964Z,100
2018-01-10T11:28:59.461Z,100
2018-01-10T11:29:24.983Z,100
2018-01-10T11:29:50.501Z,100
2018-01-10T11:30:15.979Z,100
2018-01-10T11:30:41.462Z,100
2018-01-10T11:31:06.964Z,105
2018-01-10T11:31:32.428Z,105
2018-01-10T11:31:57.893Z,110
2018-01-10T11:32:23.359Z,110
2018-01-10T11:32:48.840Z,110
2018-01-10T11:33:14.291Z,115
2018-01-10T11:34:28.103Z,120
2018-01-10T11:34:53.576Z,125
2018-01-10T11:35:19.087Z,125
2018-01-10T11:35:44.565Z,125
2018-01-10T11:36:10.028Z,130
2018-01-10T11:36:35.522Z,130
2018-01-10T11:37:00.976Z,130
2018-01-10T11:37:26.463Z,130
2018-01-10T11:37:51.949Z,125
2018-01-10T11:38:17.459Z,130
2018-01-10T11:39:31.237Z,135
2018-01-10T11:39:56.742Z,140
2018-01-10T11:40:22.217Z,145
2018-01-10T11:40:47.697Z,145
2018-01-10T11:41:13.150Z,150
2018-01-10T11:41:38.607Z,150
2018-01-10T11:42:04.080Z,155
2018-01-10T11:42:29.561Z,145
2018-01-10T11:42:55.006Z,145
2018-01-10T11:43:20.470Z,140
2018-01-10T11:43:45.945Z,140
2018-01-10T11:44:54.666Z,140
2018-01-10T11:45:20.151Z,140
2018-01-10T11:45:45.619Z,140
2018-01-10T11:46:11.094Z,140
2018-01-10T11:46:36.574Z,140
2018-01-10T11:47:02.082Z,145
2018-01-10T11:47:27.551Z,145
2018-01-10T11:47:53.073Z,145
2018-01-10T11:49:06.868Z,150
2018-01-10T11:49:32.342Z,150
2018-01-10T11:49:57.817Z,150
2018-01-10T11:50:23.265Z,150
2018-01-10T11:50:48.730Z,150